createdAt,value
2023-02-04T00:00:56.652Z,101988.09
2023-02-04T00:03:23.054Z,101987.75
2023-02-04T00:05:49.802Z,101990.13
2023-02-04T00:08:16.140Z,101986.19
2023-02-04T00:10:42.406Z,101996.00
2023-02-04T00:13:08.780Z,101995.84
2023-02-04T00:15:35.133Z,101996.19
2023-02-04T00:18:01.476Z,101994.59
2023-02-04T00:20:27.909Z,102001.19
2023-02-04T00:22:54.881Z,102005.94
2023-02-04T00:25:21.213Z,102009.63
2023-02-04T00:27:47.597Z,102004.88
2023-02-04T00:30:14.118Z,102016.03
2023-02-04T00:32:40.465Z,102015.44
2023-02-04T00:35:07.197Z,102014.72
2023-02-04T00:37:33.644Z,102016.22
2023-02-04T00:39:59.958Z,102016.63
2023-02-04T00:42:26.239Z,102015.50
2023-02-04T00:44:52.615Z,102019.66
2023-02-04T00:47:18.944Z,102019.31
2023-02-04T00:49:45.298Z,102025.69
2023-02-04T00:52:11.610Z,102031.91
2023-02-04T00:54:37.930Z,102033.97
2023-02-04T00:57:04.335Z,102042.19
2023-02-04T00:59:30.685Z,102040.53
2023-02-04T01:01:56.969Z,102035.88
2023-02-04T01:04:24.044Z,102030.69
2023-02-04T01:06:56.593Z,102031.06
2023-02-04T01:09:22.911Z,102041.31
2023-02-04T01:11:49.338Z,102041.38
2023-02-04T01:14:16.233Z,102052.88
2023-02-04T01:16:42.731Z,102043.97
2023-02-04T01:19:09.098Z,102043.25
2023-02-04T01:21:35.462Z,102047.94
2023-02-04T01:24:01.821Z,102056.97
2023-02-04T01:26:28.179Z,102062.94
2023-02-04T01:28:54.672Z,102061.25
2023-02-04T01:31:21.264Z,102065.16
2023-02-04T01:33:47.674Z,102058.41
2023-02-04T01:36:14.002Z,102071.03
2023-02-04T01:38:40.305Z,102058.25
2023-02-04T01:41:07.185Z,102056.19
2023-02-04T01:43:34.078Z,102076.56
2023-02-04T01:46:02.340Z,102074.50
2023-02-04T01:48:28.906Z,102079.94
2023-02-04T01:51:04.328Z,102081.56
2023-02-04T01:53:32.136Z,102067.91
2023-02-04T01:55:58.938Z,102077.56
2023-02-04T01:58:25.362Z,102073.34
2023-02-04T02:00:52.069Z,102065.66
2023-02-04T02:03:18.895Z,102069.97
2023-02-04T02:05:49.509Z,102079.97
2023-02-04T02:08:16.929Z,102071.66
2023-02-04T02:10:46.034Z,102084.94
2023-02-04T02:13:15.377Z,102085.25
2023-02-04T02:15:42.169Z,102086.59
2023-02-04T02:18:09.888Z,102095.84
2023-02-04T02:20:36.970Z,102094.88
2023-02-04T02:23:14.060Z,102100.28
2023-02-04T02:25:40.749Z,102096.44
2023-02-04T02:28:12.503Z,102103.97
2023-02-04T02:30:39.887Z,102116.84
2023-02-04T02:33:06.734Z,102118.50
2023-02-04T02:35:33.713Z,102111.03
2023-02-04T02:38:00.131Z,102102.06
2023-02-04T02:40:26.685Z,102105.78
2023-02-04T02:42:54.066Z,102107.59
2023-02-04T02:45:27.317Z,102112.94
2023-02-04T02:47:55.749Z,102126.03
2023-02-04T02:50:25.852Z,102126.47
2023-02-04T02:52:53.488Z,102111.78
2023-02-04T02:55:22.776Z,102118.56
2023-02-04T02:57:49.949Z,102124.88
2023-02-04T03:00:20.737Z,102129.75
2023-02-04T03:03:12.165Z,102126.50
2023-02-04T03:05:42.191Z,102126.28
2023-02-04T03:08:10.044Z,102121.91
2023-02-04T03:10:36.972Z,102130.47
2023-02-04T03:13:03.914Z,102132.31
2023-02-04T03:15:31.750Z,102135.34
2023-02-04T03:17:59.334Z,102128.28
2023-02-04T03:20:28.460Z,102145.16
2023-02-04T03:22:56.316Z,102142.16
2023-02-04T03:25:26.334Z,102141.75
2023-02-04T03:27:54.339Z,102146.41
2023-02-04T03:30:22.147Z,102152.63
2023-02-04T03:32:48.606Z,102148.13
2023-02-04T03:35:15.069Z,102147.72
2023-02-04T03:37:41.368Z,102157.31
2023-02-04T03:40:08.540Z,102163.75
2023-02-04T03:42:34.976Z,102168.28
2023-02-04T03:45:01.290Z,102170.81
2023-02-04T03:47:27.633Z,102166.72
2023-02-04T03:49:53.978Z,102170.19
2023-02-04T03:52:20.333Z,102167.38
2023-02-04T03:54:47.020Z,102179.44
2023-02-04T03:57:13.613Z,102184.28
2023-02-04T03:59:39.950Z,102184.59
2023-02-04T04:02:07.231Z,102185.72
2023-02-04T04:04:33.588Z,102201.59
2023-02-04T04:06:59.938Z,102186.38
2023-02-04T04:09:26.575Z,102198.28
2023-02-04T04:11:52.918Z,102203.47
2023-02-04T04:14:19.218Z,102207.88
2023-02-04T04:16:45.579Z,102210.06
2023-02-04T04:19:11.863Z,102210.84
2023-02-04T04:21:38.257Z,102216.97
2023-02-04T04:24:04.734Z,102223.41
2023-02-04T04:26:31.044Z,102229.81
2023-02-04T04:28:57.372Z,102238.00
2023-02-04T04:31:23.800Z,102238.97
2023-02-04T04:33:50.197Z,102241.81
2023-02-04T04:36:16.606Z,102234.88
2023-02-04T04:38:42.941Z,102232.59
2023-02-04T04:41:09.232Z,102228.81
2023-02-04T04:43:35.525Z,102232.25
2023-02-04T04:46:01.841Z,102232.06
2023-02-04T04:48:28.161Z,102227.66
2023-02-04T04:50:54.481Z,102226.03
2023-02-04T04:53:20.795Z,102225.34
2023-02-04T04:55:47.163Z,102219.25
2023-02-04T04:58:13.478Z,102215.75
2023-02-04T05:00:39.905Z,102221.25
2023-02-04T05:03:06.272Z,102214.03
2023-02-04T05:05:32.633Z,102209.84
2023-02-04T05:07:59.083Z,102207.97
2023-02-04T05:10:25.484Z,102218.56
2023-02-04T05:12:51.808Z,102211.34
2023-02-04T05:15:18.185Z,102215.13
2023-02-04T05:17:44.502Z,102221.91
2023-02-04T05:20:11.350Z,102229.53
2023-02-04T05:22:37.712Z,102221.09
2023-02-04T05:25:04.238Z,102227.28
2023-02-04T05:27:30.572Z,102246.81
2023-02-04T05:29:56.880Z,102249.72
2023-02-04T05:32:23.248Z,102242.50
2023-02-04T05:34:49.555Z,102253.03
2023-02-04T05:37:17.375Z,102259.25
2023-02-04T05:39:43.655Z,102259.78
2023-02-04T05:42:09.983Z,102259.91
2023-02-04T05:44:36.386Z,102258.69
2023-02-04T05:47:02.746Z,102269.09
2023-02-04T05:49:29.051Z,102265.19
2023-02-04T05:51:55.458Z,102274.22
2023-02-04T05:54:21.847Z,102281.28
2023-02-04T05:56:48.346Z,102290.97
2023-02-04T05:59:14.810Z,102297.41
2023-02-04T06:01:41.132Z,102285.28
2023-02-04T06:04:07.538Z,102297.81
2023-02-04T06:06:33.877Z,102303.38
2023-02-04T06:09:00.913Z,102300.91
2023-02-04T06:11:27.426Z,102306.31
2023-02-04T06:13:53.812Z,102315.47
2023-02-04T06:16:20.136Z,102306.97
2023-02-04T06:18:46.478Z,102316.97
2023-02-04T06:21:12.810Z,102312.50
2023-02-04T06:23:39.152Z,102308.06
2023-02-04T06:26:05.564Z,102319.56
2023-02-04T06:28:32.141Z,102325.38
2023-02-04T06:30:58.572Z,102324.44
2023-02-04T06:33:24.979Z,102326.94
2023-02-04T06:35:51.518Z,102322.19
2023-02-04T06:38:18.079Z,102326.56
2023-02-04T06:40:44.392Z,102324.09
2023-02-04T06:43:10.768Z,102317.00
2023-02-04T06:45:37.041Z,102320.56
2023-02-04T06:48:03.520Z,102316.81
2023-02-04T06:50:30.205Z,102320.16
2023-02-04T06:52:56.730Z,102321.22
2023-02-04T06:55:23.043Z,102320.56
2023-02-04T06:57:49.321Z,102329.09
2023-02-04T07:00:16.065Z,102326.78
2023-02-04T07:02:42.491Z,102334.78
2023-02-04T07:05:09.438Z,102347.31
2023-02-04T07:07:35.761Z,102350.13
2023-02-04T07:10:02.303Z,102353.44
2023-02-04T07:12:28.602Z,102358.91
2023-02-04T07:14:54.895Z,102362.59
2023-02-04T07:17:21.269Z,102363.53
2023-02-04T07:19:47.544Z,102371.44
2023-02-04T07:22:13.837Z,102374.41
2023-02-04T07:24:40.538Z,102381.34
2023-02-04T07:27:06.837Z,102388.63
2023-02-04T07:29:33.164Z,102387.91
2023-02-04T07:31:59.646Z,102375.63
2023-02-04T07:34:26.155Z,102380.97
2023-02-04T07:36:52.544Z,102382.03
2023-02-04T07:39:18.936Z,102382.84
2023-02-04T07:41:45.338Z,102387.22
2023-02-04T07:44:11.620Z,102388.09
2023-02-04T07:46:38.112Z,102393.00
2023-02-04T07:49:04.541Z,102398.06
2023-02-04T07:51:31.038Z,102406.44
2023-02-04T07:53:57.398Z,102408.78
2023-02-04T07:56:23.734Z,102416.47
2023-02-04T07:58:50.155Z,102411.13
2023-02-04T08:01:16.861Z,102426.06
2023-02-04T08:06:34.453Z,102428.88
2023-02-04T08:09:00.813Z,102434.19
2023-02-04T08:11:27.147Z,102434.59
2023-02-04T08:13:53.530Z,102432.31
2023-02-04T08:16:19.887Z,102435.81
2023-02-04T08:18:46.291Z,102446.22
2023-02-04T08:21:12.597Z,102446.75
2023-02-04T08:23:41.689Z,102451.66
2023-02-04T08:26:11.770Z,102450.53
2023-02-04T08:28:38.967Z,102446.56
2023-02-04T08:31:07.027Z,102443.75
2023-02-04T08:33:33.450Z,102449.41
2023-02-04T08:35:59.801Z,102452.09
2023-02-04T08:38:26.317Z,102461.25
2023-02-04T08:40:52.829Z,102464.94
2023-02-04T08:43:19.216Z,102464.88
2023-02-04T08:45:45.545Z,102456.19
2023-02-04T08:48:11.883Z,102460.59
2023-02-04T08:50:39.144Z,102464.88
2023-02-04T08:53:05.574Z,102466.28
2023-02-04T08:55:31.991Z,102479.22
2023-02-04T08:57:59.018Z,102470.78
2023-02-04T09:00:25.690Z,102459.81
2023-02-04T09:02:52.045Z,102474.84
2023-02-04T09:05:18.541Z,102479.03
2023-02-04T09:07:44.891Z,102485.31
2023-02-04T09:10:11.307Z,102480.75
2023-02-04T09:12:37.667Z,102490.72
2023-02-04T09:15:06.052Z,102491.41
2023-02-04T09:17:33.762Z,102503.44
2023-02-04T09:20:00.054Z,102494.19
2023-02-04T09:22:26.375Z,102494.03
2023-02-04T09:24:52.727Z,102494.47
2023-02-04T09:27:19.707Z,102498.75
2023-02-04T09:29:46.057Z,102500.13
2023-02-04T09:32:12.523Z,102505.41
2023-02-04T09:34:38.874Z,102503.25
2023-02-04T09:37:05.197Z,102505.03
2023-02-04T09:39:31.530Z,102509.16
2023-02-04T09:41:58.794Z,102511.13
2023-02-04T09:44:27.569Z,102513.13
2023-02-04T09:46:56.911Z,102512.13
2023-02-04T09:49:24.470Z,102511.41
2023-02-04T09:51:51.304Z,102527.88
2023-02-04T09:54:19.790Z,102533.09
2023-02-04T09:56:47.315Z,102536.09
2023-02-04T09:59:16.655Z,102531.50
2023-02-04T10:01:43.010Z,102536.47
2023-02-04T10:04:12.968Z,102537.88
2023-02-04T10:06:40.735Z,102539.00
2023-02-04T10:09:10.810Z,102546.19
2023-02-04T10:11:40.511Z,102546.25
2023-02-04T10:14:15.037Z,102558.50
2023-02-04T10:16:43.588Z,102555.47
2023-02-04T10:19:15.521Z,102556.13
2023-02-04T10:21:44.755Z,102557.50
2023-02-04T10:24:15.741Z,102561.81
2023-02-04T10:26:42.480Z,102565.78
2023-02-04T10:29:18.397Z,102562.19
2023-02-04T10:31:49.928Z,102561.91
2023-02-04T10:34:19.008Z,102565.91
2023-02-04T10:36:48.460Z,102562.28
2023-02-04T10:39:21.559Z,102561.25
2023-02-04T10:41:52.886Z,102555.50
2023-02-04T10:44:33.289Z,102561.88
2023-02-04T10:47:09.471Z,102561.47
2023-02-04T10:49:36.515Z,102563.56
2023-02-04T10:52:13.735Z,102562.41
2023-02-04T10:54:40.084Z,102562.09
2023-02-04T10:57:26.786Z,102561.66
2023-02-04T11:00:02.310Z,102560.00
2023-02-04T11:02:31.664Z,102562.16
2023-02-04T11:04:58.198Z,102562.63
2023-02-04T11:07:24.690Z,102557.19
2023-02-04T11:09:51.141Z,102565.28
2023-02-04T11:12:23.021Z,102567.72
2023-02-04T11:14:57.559Z,102561.72
2023-02-04T11:17:34.851Z,102564.75
2023-02-04T11:20:30.246Z,102554.69
2023-02-04T11:22:56.738Z,102556.28
2023-02-04T11:25:39.544Z,102562.53
2023-02-04T11:28:24.917Z,102556.91
2023-02-04T11:31:03.693Z,102567.16
2023-02-04T11:33:41.950Z,102568.00
2023-02-04T11:36:11.991Z,102568.03
2023-02-04T11:38:39.460Z,102569.38
2023-02-04T11:41:06.010Z,102579.66
2023-02-04T11:43:35.919Z,102573.34
2023-02-04T11:46:13.358Z,102569.47
2023-02-04T11:48:39.850Z,102569.00
2023-02-04T11:51:15.494Z,102572.00
2023-02-04T11:53:41.909Z,102567.19
2023-02-04T11:56:17.946Z,102563.41
2023-02-04T11:58:44.485Z,102566.25
2023-02-04T12:01:22.161Z,102559.00
2023-02-04T12:03:50.622Z,102568.13
2023-02-04T12:06:26.092Z,102564.56
2023-02-04T12:08:52.464Z,102571.53
2023-02-04T12:11:27.725Z,102570.22
2023-02-04T12:13:56.435Z,102573.16
2023-02-04T12:16:23.722Z,102580.31
2023-02-04T12:18:50.744Z,102573.94
2023-02-04T12:21:21.120Z,102571.63
2023-02-04T12:23:47.419Z,102576.06
2023-02-04T12:26:13.867Z,102583.50
2023-02-04T12:28:40.283Z,102576.72
2023-02-04T12:31:06.703Z,102577.88
2023-02-04T12:33:33.092Z,102573.31
2023-02-04T12:35:59.418Z,102570.25
2023-02-04T12:38:27.669Z,102576.72
2023-02-04T12:40:53.990Z,102576.63
2023-02-04T12:43:20.368Z,102581.53
2023-02-04T12:45:49.557Z,102571.06
2023-02-04T12:48:15.930Z,102575.09
2023-02-04T12:50:42.278Z,102574.69
2023-02-04T12:53:08.824Z,102573.41
2023-02-04T12:55:35.460Z,102581.97
2023-02-04T12:58:02.033Z,102573.34
2023-02-04T13:00:28.518Z,102581.03
2023-02-04T13:02:55.074Z,102588.59
2023-02-04T13:05:21.661Z,102581.56
2023-02-04T13:07:47.970Z,102581.81
2023-02-04T13:10:14.844Z,102580.13
2023-02-04T13:12:41.570Z,102582.44
2023-02-04T13:15:08.764Z,102582.22
2023-02-04T13:17:35.129Z,102574.81
2023-02-04T13:20:01.532Z,102575.38
2023-02-04T13:22:28.095Z,102581.38
2023-02-04T13:24:54.512Z,102580.50
2023-02-04T13:27:20.978Z,102575.50
2023-02-04T13:29:47.254Z,102572.69
2023-02-04T13:32:13.690Z,102557.28
2023-02-04T13:34:40.064Z,102567.03
2023-02-04T13:37:06.374Z,102572.38
2023-02-04T13:39:32.714Z,102559.06
2023-02-04T13:41:59.027Z,102570.47
2023-02-04T13:44:25.483Z,102570.66
2023-02-04T13:46:52.040Z,102566.38
2023-02-04T13:49:18.623Z,102562.69
2023-02-04T13:51:44.972Z,102567.44
2023-02-04T13:54:11.330Z,102572.09
2023-02-04T13:56:37.683Z,102567.03
2023-02-04T13:59:03.999Z,102568.47
2023-02-04T14:01:30.299Z,102569.72
2023-02-04T14:03:56.714Z,102580.09
2023-02-04T14:06:23.466Z,102573.00
2023-02-04T14:08:49.768Z,102577.50
2023-02-04T14:11:16.149Z,102577.19
2023-02-04T14:13:42.478Z,102575.56
2023-02-04T14:16:09.345Z,102575.69
2023-02-04T14:18:35.761Z,102581.91
2023-02-04T14:21:02.096Z,102581.06
2023-02-04T14:23:28.451Z,102585.63
2023-02-04T14:25:54.876Z,102593.38
2023-02-04T14:28:21.250Z,102578.53
2023-02-04T14:30:47.580Z,102580.19
2023-02-04T14:33:15.711Z,102601.22
2023-02-04T14:35:42.042Z,102592.50
2023-02-04T14:38:08.382Z,102593.28
2023-02-04T14:40:35.030Z,102590.81
2023-02-04T14:43:01.495Z,102584.94
2023-02-04T14:45:27.856Z,102589.47
2023-02-04T14:47:56.978Z,102578.34
2023-02-04T14:50:26.987Z,102582.44
2023-02-04T14:52:54.174Z,102583.22
2023-02-04T14:55:20.491Z,102584.78
2023-02-04T14:57:46.810Z,102590.13
2023-02-04T15:00:13.945Z,102592.31
2023-02-04T15:02:40.442Z,102586.63
2023-02-04T15:05:06.969Z,102595.69
2023-02-04T15:07:33.274Z,102588.69
2023-02-04T15:09:59.875Z,102592.22
2023-02-04T15:12:26.374Z,102592.88
2023-02-04T15:14:52.785Z,102589.41
2023-02-04T15:17:19.194Z,102580.94
2023-02-04T15:19:45.879Z,102577.56
2023-02-04T15:22:12.555Z,102580.06
2023-02-04T15:24:39.629Z,102579.22
2023-02-04T15:27:06.091Z,102581.22
2023-02-04T15:29:32.885Z,102591.28
2023-02-04T15:31:59.462Z,102598.13
2023-02-04T15:34:25.924Z,102604.66
2023-02-04T15:36:52.289Z,102601.59
2023-02-04T15:39:18.702Z,102610.53
2023-02-04T15:41:45.081Z,102610.03
2023-02-04T15:44:12.547Z,102611.13
2023-02-04T15:46:38.977Z,102608.72
2023-02-04T15:49:05.460Z,102608.22
2023-02-04T15:51:31.855Z,102612.69
2023-02-04T15:53:58.151Z,102609.38
2023-02-04T15:56:24.495Z,102615.00
2023-02-04T15:58:50.962Z,102620.66
2023-02-04T16:01:18.812Z,102617.47
2023-02-04T16:03:46.725Z,102631.69
2023-02-04T16:06:13.093Z,102629.22
2023-02-04T16:08:39.875Z,102620.78
2023-02-04T16:11:06.316Z,102627.00
2023-02-04T16:13:32.800Z,102631.63
2023-02-04T16:15:59.349Z,102631.69
2023-02-04T16:18:25.809Z,102637.03
2023-02-04T16:20:52.289Z,102646.97
2023-02-04T16:23:18.568Z,102639.41
2023-02-04T16:25:44.967Z,102647.50
2023-02-04T16:28:11.405Z,102642.22
2023-02-04T16:30:39.166Z,102653.22
2023-02-04T16:33:06.795Z,102647.97
2023-02-04T16:36:03.873Z,102659.97
2023-02-04T16:38:31.216Z,102648.72
2023-02-04T16:40:58.125Z,102660.59
2023-02-04T16:43:24.923Z,102661.81
2023-02-04T16:45:51.876Z,102653.22
2023-02-04T16:48:18.493Z,102648.34
2023-02-04T16:50:44.905Z,102653.75
2023-02-04T16:53:14.846Z,102655.47
2023-02-04T16:55:45.250Z,102651.31
2023-02-04T16:58:12.910Z,102664.69
2023-02-04T17:00:42.062Z,102649.78
2023-02-04T17:03:09.474Z,102670.25
2023-02-04T17:05:36.115Z,102662.25
2023-02-04T17:08:02.437Z,102662.38
2023-02-04T17:10:47.549Z,102666.97
2023-02-04T17:13:13.905Z,102672.75
2023-02-04T17:15:40.360Z,102674.63
2023-02-04T17:18:06.832Z,102678.56
2023-02-04T17:20:33.760Z,102683.88
2023-02-04T17:23:00.240Z,102683.22
2023-02-04T17:25:26.719Z,102683.34
2023-02-04T17:27:53.490Z,102673.03
2023-02-04T17:30:20.785Z,102685.66
2023-02-04T17:32:47.179Z,102680.53
2023-02-04T17:35:13.586Z,102691.91
2023-02-04T17:37:39.972Z,102695.84
2023-02-04T17:40:07.018Z,102686.91
2023-02-04T17:42:33.511Z,102688.66
2023-02-04T17:44:59.792Z,102691.41
2023-02-04T17:47:26.094Z,102689.78
2023-02-04T17:49:52.742Z,102688.03
2023-02-04T17:52:19.672Z,102697.91
2023-02-04T17:54:45.992Z,102707.75
2023-02-04T17:57:17.973Z,102702.44
2023-02-04T17:59:44.662Z,102702.38
2023-02-04T18:02:31.771Z,102702.44
2023-02-04T18:05:05.431Z,102707.88
2023-02-04T18:07:31.766Z,102703.63
2023-02-04T18:10:17.407Z,102705.59
2023-02-04T18:12:43.770Z,102703.13
2023-02-04T18:15:25.681Z,102707.72
2023-02-04T18:17:57.135Z,102702.63
2023-02-04T18:20:23.869Z,102707.31
2023-02-04T18:22:56.305Z,102713.53
2023-02-04T18:25:23.807Z,102712.66
2023-02-04T18:27:50.304Z,102709.31
2023-02-04T18:30:26.134Z,102702.38
2023-02-04T18:32:54.470Z,102703.34
2023-02-04T18:35:37.505Z,102710.41
2023-02-04T18:38:17.452Z,102712.09
2023-02-04T18:40:43.809Z,102707.00
2023-02-04T18:43:10.075Z,102708.81
2023-02-04T18:45:36.854Z,102712.50
2023-02-04T18:48:15.487Z,102713.53
2023-02-04T18:50:43.811Z,102706.63
2023-02-04T18:53:12.898Z,102711.88
2023-02-04T18:55:59.251Z,102710.06
2023-02-04T18:58:34.327Z,102698.63
2023-02-04T19:01:01.853Z,102711.13
2023-02-04T19:03:37.444Z,102708.63
2023-02-04T19:06:14.447Z,102710.53
2023-02-04T19:08:44.305Z,102698.97
2023-02-04T19:11:36.425Z,102708.09
2023-02-04T19:14:21.608Z,102712.78
2023-02-04T19:16:50.652Z,102719.03
2023-02-04T19:19:26.145Z,102714.69
2023-02-04T19:21:52.444Z,102719.19
2023-02-04T19:24:24.427Z,102719.56
2023-02-04T19:26:56.726Z,102717.81
2023-02-04T19:29:24.642Z,102723.16
2023-02-04T19:31:58.918Z,102712.63
2023-02-04T19:34:33.034Z,102715.50
2023-02-04T19:36:59.834Z,102717.53
2023-02-04T19:39:36.226Z,102710.44
2023-02-04T19:42:17.168Z,102706.09
2023-02-04T19:44:46.213Z,102711.56
2023-02-04T19:47:25.842Z,102709.97
2023-02-04T19:50:01.800Z,102709.38
2023-02-04T19:52:35.386Z,102717.34
2023-02-04T19:55:16.635Z,102720.06
2023-02-04T19:57:49.969Z,102721.78
2023-02-04T20:00:34.644Z,102734.16
2023-02-04T20:03:14.234Z,102729.56
2023-02-04T20:05:41.562Z,102732.47
2023-02-04T20:08:42.968Z,102734.41
2023-02-04T20:11:31.062Z,102726.47
2023-02-04T20:14:18.500Z,102735.47
2023-02-04T20:17:00.942Z,102735.50
2023-02-04T20:19:35.212Z,102740.59
2023-02-04T20:22:20.807Z,102741.75
2023-02-04T20:24:53.043Z,102747.09
2023-02-04T20:27:19.794Z,102746.22
2023-02-04T20:29:47.372Z,102738.41
2023-02-04T20:32:27.998Z,102756.13
2023-02-04T20:35:09.089Z,102759.69
2023-02-04T20:37:35.799Z,102761.53
2023-02-04T20:40:19.083Z,102758.06
2023-02-04T20:42:49.875Z,102757.41
2023-02-04T20:45:42.897Z,102763.66
2023-02-04T20:48:15.222Z,102765.44
2023-02-04T20:50:51.867Z,102767.25
2023-02-04T20:53:38.110Z,102773.38
2023-02-04T20:56:29.394Z,102766.53
2023-02-04T20:59:16.839Z,102763.19
2023-02-04T21:01:45.648Z,102746.66
2023-02-04T21:04:17.168Z,102758.31
2023-02-04T21:06:44.141Z,102752.22
2023-02-04T21:09:22.614Z,102764.72
2023-02-04T21:11:49.932Z,102761.09
2023-02-04T21:14:16.264Z,102768.97
2023-02-04T21:16:42.641Z,102769.09
2023-02-04T21:19:10.004Z,102767.34
2023-02-04T21:21:36.424Z,102757.91
2023-02-04T21:24:02.925Z,102758.16
2023-02-04T21:26:29.281Z,102766.25
2023-02-04T21:28:55.643Z,102753.00
2023-02-04T21:31:22.102Z,102760.25
2023-02-04T21:33:48.665Z,102770.00
2023-02-04T21:36:15.085Z,102771.84
2023-02-04T21:38:41.533Z,102767.47
2023-02-04T21:41:07.957Z,102773.69
2023-02-04T21:43:34.351Z,102772.03
2023-02-04T21:46:00.766Z,102773.69
2023-02-04T21:48:27.167Z,102766.69
2023-02-04T21:50:53.868Z,102766.66
2023-02-04T21:53:20.177Z,102772.97
2023-02-04T21:55:46.502Z,102763.25
2023-02-04T21:58:12.772Z,102770.31
2023-02-04T22:00:39.388Z,102771.31
2023-02-04T22:03:06.174Z,102774.94
2023-02-04T22:05:33.752Z,102764.47
2023-02-04T22:08:00.205Z,102770.66
2023-02-04T22:10:26.860Z,102769.94
2023-02-04T22:12:53.204Z,102769.19
2023-02-04T22:15:24.018Z,102777.13
2023-02-04T22:17:52.482Z,102767.44
2023-02-04T22:20:20.258Z,102767.66
2023-02-04T22:22:47.758Z,102770.44
2023-02-04T22:25:16.323Z,102773.06
2023-02-04T22:27:43.112Z,102764.91
2023-02-04T22:30:12.123Z,102769.47
2023-02-04T22:32:39.201Z,102763.34
2023-02-04T22:35:06.456Z,102765.22
2023-02-04T22:37:32.815Z,102769.56
2023-02-04T22:39:59.192Z,102762.63
2023-02-04T22:42:25.492Z,102767.81
2023-02-04T22:44:51.918Z,102766.03
2023-02-04T22:47:18.215Z,102773.06
2023-02-04T22:49:44.588Z,102773.94
2023-02-04T22:52:11.007Z,102774.75
2023-02-04T22:54:37.792Z,102772.88
2023-02-04T22:57:04.318Z,102773.72
2023-02-04T22:59:30.698Z,102769.22
2023-02-04T23:01:57.091Z,102766.50
2023-02-04T23:04:23.823Z,102765.53
2023-02-04T23:06:50.606Z,102754.09
2023-02-04T23:09:16.971Z,102769.00
2023-02-04T23:11:43.320Z,102765.47
2023-02-04T23:14:09.762Z,102763.75
2023-02-04T23:16:36.143Z,102765.50
2023-02-04T23:19:02.771Z,102777.00
2023-02-04T23:21:29.200Z,102778.88
2023-02-04T23:23:55.639Z,102777.06
2023-02-04T23:26:22.027Z,102782.41
2023-02-04T23:28:48.370Z,102778.88
2023-02-04T23:31:14.765Z,102785.06
2023-02-04T23:33:41.190Z,102777.91
2023-02-04T23:36:07.922Z,102777.97
2023-02-04T23:38:34.286Z,102767.31
2023-02-04T23:41:00.733Z,102766.47
2023-02-04T23:43:27.671Z,102768.94
2023-02-04T23:45:56.686Z,102771.69
2023-02-04T23:48:24.284Z,102766.41
2023-02-04T23:50:51.298Z,102766.41
2023-02-04T23:53:19.206Z,102769.16
2023-02-04T23:55:46.022Z,102768.28
2023-02-04T23:58:12.379Z,102763.94
